sensor_id;sensor_type;location;lat;lon;timestamp;P1;durP1;ratioP1;P2;durP2;ratioP2
16442;SDS011;8331;51.654;14.376;2023-04-24T00:01:51;3.77;;;3.47;;
16442;SDS011;8331;51.654;14.376;2023-04-24T00:04:18;4.13;;;3.73;;
16442;SDS011;8331;51.654;14.376;2023-04-24T00:06:45;4.63;;;3.90;;
16442;SDS011;8331;51.654;14.376;2023-04-24T00:09:15;4.40;;;4.10;;
16442;SDS011;8331;51.654;14.376;2023-04-24T00:11:42;4.03;;;3.73;;
16442;SDS011;8331;51.654;14.376;2023-04-24T00:14:08;4.23;;;3.93;;
16442;SDS011;8331;51.654;14.376;2023-04-24T00:16:35;4.40;;;4.00;;
16442;SDS011;8331;51.654;14.376;2023-04-24T00:19:02;4.43;;;4.13;;
16442;SDS011;8331;51.654;14.376;2023-04-24T00:21:28;4.00;;;3.70;;
16442;SDS011;8331;51.654;14.376;2023-04-24T00:23:55;3.83;;;3.53;;
16442;SDS011;8331;51.654;14.376;2023-04-24T00:26:21;4.20;;;3.90;;
16442;SDS011;8331;51.654;14.376;2023-04-24T00:28:49;4.30;;;4.00;;
16442;SDS011;8331;51.654;14.376;2023-04-24T00:31:16;4.30;;;3.87;;
16442;SDS011;8331;51.654;14.376;2023-04-24T00:33:42;4.30;;;4.00;;
16442;SDS011;8331;51.654;14.376;2023-04-24T00:36:09;3.97;;;3.77;;
16442;SDS011;8331;51.654;14.376;2023-04-24T00:38:35;4.00;;;3.70;;
16442;SDS011;8331;51.654;14.376;2023-04-24T00:41:02;3.93;;;3.63;;
16442;SDS011;8331;51.654;14.376;2023-04-24T00:43:29;4.20;;;3.90;;
16442;SDS011;8331;51.654;14.376;2023-04-24T00:45:56;4.30;;;3.90;;
16442;SDS011;8331;51.654;14.376;2023-04-24T00:48:23;4.37;;;3.97;;
16442;SDS011;8331;51.654;14.376;2023-04-24T00:50:50;3.90;;;3.60;;
16442;SDS011;8331;51.654;14.376;2023-04-24T00:53:17;4.93;;;3.97;;
16442;SDS011;8331;51.654;14.376;2023-04-24T00:55:43;4.40;;;4.10;;
16442;SDS011;8331;51.654;14.376;2023-04-24T00:58:10;4.33;;;3.90;;
16442;SDS011;8331;51.654;14.376;2023-04-24T01:00:37;4.40;;;4.10;;
16442;SDS011;8331;51.654;14.376;2023-04-24T01:03:04;4.40;;;4.00;;
16442;SDS011;8331;51.654;14.376;2023-04-24T01:05:32;4.60;;;4.20;;
16442;SDS011;8331;51.654;14.376;2023-04-24T01:07:59;4.50;;;4.20;;
16442;SDS011;8331;51.654;14.376;2023-04-24T01:10:27;4.07;;;3.77;;
16442;SDS011;8331;51.654;14.376;2023-04-24T01:12:53;10.77;;;4.20;;
16442;SDS011;8331;51.654;14.376;2023-04-24T01:15:20;8.83;;;4.30;;
16442;SDS011;8331;51.654;14.376;2023-04-24T01:17:47;9.67;;;4.00;;
16442;SDS011;8331;51.654;14.376;2023-04-24T01:20:13;10.83;;;4.00;;
16442;SDS011;8331;51.654;14.376;2023-04-24T01:22:40;12.13;;;4.53;;
16442;SDS011;8331;51.654;14.376;2023-04-24T01:25:08;7.73;;;4.00;;
16442;SDS011;8331;51.654;14.376;2023-04-24T01:27:35;4.43;;;3.90;;
16442;SDS011;8331;51.654;14.376;2023-04-24T01:30:01;4.10;;;3.70;;
16442;SDS011;8331;51.654;14.376;2023-04-24T01:32:29;5.00;;;3.70;;
16442;SDS011;8331;51.654;14.376;2023-04-24T01:34:55;3.87;;;3.57;;
16442;SDS011;8331;51.654;14.376;2023-04-24T01:37:22;4.37;;;3.90;;
16442;SDS011;8331;51.654;14.376;2023-04-24T01:39:49;4.00;;;3.70;;
16442;SDS011;8331;51.654;14.376;2023-04-24T01:42:17;4.28;;;3.97;;
16442;SDS011;8331;51.654;14.376;2023-04-24T01:44:46;6.33;;;4.10;;
16442;SDS011;8331;51.654;14.376;2023-04-24T01:47:13;3.77;;;3.53;;
16442;SDS011;8331;51.654;14.376;2023-04-24T01:49:39;4.40;;;4.03;;
16442;SDS011;8331;51.654;14.376;2023-04-24T01:52:07;4.27;;;4.03;;
16442;SDS011;8331;51.654;14.376;2023-04-24T01:54:33;4.43;;;4.03;;
16442;SDS011;8331;51.654;14.376;2023-04-24T01:57:00;4.80;;;4.40;;
16442;SDS011;8331;51.654;14.376;2023-04-24T01:59:28;4.57;;;4.27;;
16442;SDS011;8331;51.654;14.376;2023-04-24T02:01:56;4.93;;;4.43;;
16442;SDS011;8331;51.654;14.376;2023-04-24T02:04:22;4.37;;;4.07;;
16442;SDS011;8331;51.654;14.376;2023-04-24T02:06:49;5.00;;;4.70;;
16442;SDS011;8331;51.654;14.376;2023-04-24T02:09:15;4.80;;;4.50;;
16442;SDS011;8331;51.654;14.376;2023-04-24T02:11:42;4.87;;;4.47;;
16442;SDS011;8331;51.654;14.376;2023-04-24T02:14:09;4.50;;;4.10;;
16442;SDS011;8331;51.654;14.376;2023-04-24T02:16:38;4.80;;;4.50;;
16442;SDS011;8331;51.654;14.376;2023-04-24T02:19:05;4.30;;;3.90;;
16442;SDS011;8331;51.654;14.376;2023-04-24T02:21:32;4.00;;;3.70;;
16442;SDS011;8331;51.654;14.376;2023-04-24T02:23:59;4.47;;;4.17;;
16442;SDS011;8331;51.654;14.376;2023-04-24T02:26:25;4.43;;;4.10;;
16442;SDS011;8331;51.654;14.376;2023-04-24T02:28:52;4.37;;;4.07;;
16442;SDS011;8331;51.654;14.376;2023-04-24T02:31:19;5.23;;;4.00;;
16442;SDS011;8331;51.654;14.376;2023-04-24T02:33:46;4.77;;;4.37;;
16442;SDS011;8331;51.654;14.376;2023-04-24T02:36:13;4.90;;;4.50;;
16442;SDS011;8331;51.654;14.376;2023-04-24T02:38:40;4.27;;;3.97;;
16442;SDS011;8331;51.654;14.376;2023-04-24T02:41:07;4.20;;;3.80;;
16442;SDS011;8331;51.654;14.376;2023-04-24T02:43:33;4.47;;;4.17;;
16442;SDS011;8331;51.654;14.376;2023-04-24T02:46:00;4.43;;;4.13;;
16442;SDS011;8331;51.654;14.376;2023-04-24T02:48:27;4.37;;;4.07;;
16442;SDS011;8331;51.654;14.376;2023-04-24T02:50:54;4.40;;;4.00;;
16442;SDS011;8331;51.654;14.376;2023-04-24T02:53:20;5.83;;;4.60;;
16442;SDS011;8331;51.654;14.376;2023-04-24T02:55:47;4.70;;;4.10;;
16442;SDS011;8331;51.654;14.376;2023-04-24T02:58:14;4.37;;;4.07;;
16442;SDS011;8331;51.654;14.376;2023-04-24T03:00:40;4.50;;;4.10;;
16442;SDS011;8331;51.654;14.376;2023-04-24T03:03:07;5.17;;;4.13;;
16442;SDS011;8331;51.654;14.376;2023-04-24T03:05:34;4.37;;;3.93;;
16442;SDS011;8331;51.654;14.376;2023-04-24T03:08:00;5.27;;;4.23;;
16442;SDS011;8331;51.654;14.376;2023-04-24T03:10:27;4.87;;;4.40;;
16442;SDS011;8331;51.654;14.376;2023-04-24T03:12:53;4.80;;;4.40;;
16442;SDS011;8331;51.654;14.376;2023-04-24T03:15:21;4.57;;;4.27;;
16442;SDS011;8331;51.654;14.376;2023-04-24T03:17:48;4.67;;;4.37;;
16442;SDS011;8331;51.654;14.376;2023-04-24T03:20:14;4.60;;;4.28;;
16442;SDS011;8331;51.654;14.376;2023-04-24T03:22:42;5.13;;;4.70;;
16442;SDS011;8331;51.654;14.376;2023-04-24T03:25:09;5.03;;;4.63;;
16442;SDS011;8331;51.654;14.376;2023-04-24T03:27:36;5.53;;;5.10;;
16442;SDS011;8331;51.654;14.376;2023-04-24T03:30:11;5.40;;;5.00;;
16442;SDS011;8331;51.654;14.376;2023-04-24T03:32:43;5.57;;;5.07;;
16442;SDS011;8331;51.654;14.376;2023-04-24T03:35:13;5.07;;;4.67;;
16442;SDS011;8331;51.654;14.376;2023-04-24T03:37:40;5.23;;;4.83;;
16442;SDS011;8331;51.654;14.376;2023-04-24T03:40:25;5.40;;;5.00;;
16442;SDS011;8331;51.654;14.376;2023-04-24T03:42:51;5.87;;;5.47;;
16442;SDS011;8331;51.654;14.376;2023-04-24T03:45:18;5.33;;;4.67;;
16442;SDS011;8331;51.654;14.376;2023-04-24T03:47:48;5.23;;;4.83;;
16442;SDS011;8331;51.654;14.376;2023-04-24T03:50:15;4.80;;;4.43;;
16442;SDS011;8331;51.654;14.376;2023-04-24T03:52:42;4.60;;;4.20;;
16442;SDS011;8331;51.654;14.376;2023-04-24T03:55:15;4.20;;;4.00;;
16442;SDS011;8331;51.654;14.376;2023-04-24T03:57:45;5.53;;;5.13;;
16442;SDS011;8331;51.654;14.376;2023-04-24T04:00:19;7.27;;;6.77;;
16442;SDS011;8331;51.654;14.376;2023-04-24T04:02:55;9.40;;;8.50;;
16442;SDS011;8331;51.654;14.376;2023-04-24T04:05:22;6.77;;;6.17;;
16442;SDS011;8331;51.654;14.376;2023-04-24T04:07:49;5.80;;;5.30;;
16442;SDS011;8331;51.654;14.376;2023-04-24T04:10:16;5.80;;;5.40;;
16442;SDS011;8331;51.654;14.376;2023-04-24T04:12:43;5.83;;;5.43;;
16442;SDS011;8331;51.654;14.376;2023-04-24T04:15:10;6.10;;;5.50;;
16442;SDS011;8331;51.654;14.376;2023-04-24T04:17:37;6.03;;;5.57;;
16442;SDS011;8331;51.654;14.376;2023-04-24T04:20:06;5.53;;;5.03;;
16442;SDS011;8331;51.654;14.376;2023-04-24T04:22:36;5.07;;;4.67;;
16442;SDS011;8331;51.654;14.376;2023-04-24T04:25:06;5.97;;;4.67;;
16442;SDS011;8331;51.654;14.376;2023-04-24T04:27:34;6.73;;;4.60;;
16442;SDS011;8331;51.654;14.376;2023-04-24T04:30:07;4.33;;;4.00;;
16442;SDS011;8331;51.654;14.376;2023-04-24T04:32:51;4.33;;;3.93;;
16442;SDS011;8331;51.654;14.376;2023-04-24T04:35:19;5.23;;;4.83;;
16442;SDS011;8331;51.654;14.376;2023-04-24T04:37:49;5.00;;;4.60;;
16442;SDS011;8331;51.654;14.376;2023-04-24T04:40:36;4.97;;;4.57;;
16442;SDS011;8331;51.654;14.376;2023-04-24T04:43:04;5.10;;;4.60;;
16442;SDS011;8331;51.654;14.376;2023-04-24T04:45:40;5.03;;;4.63;;
16442;SDS011;8331;51.654;14.376;2023-04-24T04:48:27;5.13;;;4.73;;
16442;SDS011;8331;51.654;14.376;2023-04-24T04:50:55;5.00;;;4.60;;
16442;SDS011;8331;51.654;14.376;2023-04-24T04:53:22;4.57;;;4.27;;
16442;SDS011;8331;51.654;14.376;2023-04-24T04:55:49;5.47;;;4.97;;
16442;SDS011;8331;51.654;14.376;2023-04-24T04:58:18;5.07;;;4.57;;
16442;SDS011;8331;51.654;14.376;2023-04-24T05:00:46;5.00;;;4.60;;
16442;SDS011;8331;51.654;14.376;2023-04-24T05:03:40;4.73;;;4.43;;
16442;SDS011;8331;51.654;14.376;2023-04-24T05:06:09;4.30;;;4.00;;
16442;SDS011;8331;51.654;14.376;2023-04-24T05:08:39;5.13;;;4.50;;
16442;SDS011;8331;51.654;14.376;2023-04-24T05:11:10;4.80;;;4.50;;
16442;SDS011;8331;51.654;14.376;2023-04-24T05:13:38;4.77;;;4.37;;
16442;SDS011;8331;51.654;14.376;2023-04-24T05:16:24;4.50;;;4.20;;
16442;SDS011;8331;51.654;14.376;2023-04-24T05:18:53;5.67;;;4.40;;
16442;SDS011;8331;51.654;14.376;2023-04-24T05:21:26;4.10;;;3.80;;
16442;SDS011;8331;51.654;14.376;2023-04-24T05:23:53;4.20;;;3.90;;
16442;SDS011;8331;51.654;14.376;2023-04-24T05:26:40;3.40;;;3.10;;
16442;SDS011;8331;51.654;14.376;2023-04-24T05:29:08;4.67;;;3.40;;
16442;SDS011;8331;51.654;14.376;2023-04-24T05:31:35;3.90;;;3.60;;
16442;SDS011;8331;51.654;14.376;2023-04-24T05:34:03;3.80;;;3.60;;
16442;SDS011;8331;51.654;14.376;2023-04-24T05:36:29;3.73;;;3.10;;
16442;SDS011;8331;51.654;14.376;2023-04-24T05:38:57;4.07;;;3.10;;
16442;SDS011;8331;51.654;14.376;2023-04-24T05:41:24;3.37;;;3.17;;
16442;SDS011;8331;51.654;14.376;2023-04-24T05:43:55;3.23;;;3.03;;
16442;SDS011;8331;51.654;14.376;2023-04-24T05:46:22;2.90;;;2.70;;
16442;SDS011;8331;51.654;14.376;2023-04-24T05:48:49;2.87;;;2.67;;
16442;SDS011;8331;51.654;14.376;2023-04-24T05:51:15;4.60;;;2.80;;
16442;SDS011;8331;51.654;14.376;2023-04-24T05:53:42;3.17;;;2.60;;
16442;SDS011;8331;51.654;14.376;2023-04-24T05:56:09;2.63;;;2.40;;
16442;SDS011;8331;51.654;14.376;2023-04-24T05:58:36;2.50;;;2.30;;
16442;SDS011;8331;51.654;14.376;2023-04-24T06:01:04;2.57;;;2.37;;
16442;SDS011;8331;51.654;14.376;2023-04-24T06:03:31;2.30;;;2.10;;
16442;SDS011;8331;51.654;14.376;2023-04-24T06:06:02;2.33;;;2.20;;
16442;SDS011;8331;51.654;14.376;2023-04-24T06:08:28;1.93;;;1.73;;
16442;SDS011;8331;51.654;14.376;2023-04-24T06:10:55;2.20;;;2.10;;
16442;SDS011;8331;51.654;14.376;2023-04-24T06:13:21;3.03;;;2.00;;
16442;SDS011;8331;51.654;14.376;2023-04-24T06:16:06;1.80;;;1.70;;
16442;SDS011;8331;51.654;14.376;2023-04-24T06:18:37;1.97;;;1.60;;
16442;SDS011;8331;51.654;14.376;2023-04-24T06:21:04;2.00;;;1.73;;
16442;SDS011;8331;51.654;14.376;2023-04-24T06:23:31;2.07;;;1.67;;
16442;SDS011;8331;51.654;14.376;2023-04-24T06:25:59;3.90;;;1.63;;
16442;SDS011;8331;51.654;14.376;2023-04-24T06:28:26;3.13;;;1.80;;
16442;SDS011;8331;51.654;14.376;2023-04-24T06:30:52;1.60;;;1.50;;
16442;SDS011;8331;51.654;14.376;2023-04-24T06:33:19;1.27;;;1.20;;
16442;SDS011;8331;51.654;14.376;2023-04-24T06:35:49;2.07;;;1.13;;
16442;SDS011;8331;51.654;14.376;2023-04-24T06:38:15;3.43;;;1.30;;
16442;SDS011;8331;51.654;14.376;2023-04-24T06:40:42;1.10;;;1.10;;
16442;SDS011;8331;51.654;14.376;2023-04-24T06:43:09;2.87;;;1.00;;
16442;SDS011;8331;51.654;14.376;2023-04-24T06:45:37;0.83;;;0.83;;
16442;SDS011;8331;51.654;14.376;2023-04-24T06:48:05;1.57;;;1.10;;
16442;SDS011;8331;51.654;14.376;2023-04-24T06:50:32;1.43;;;1.20;;
16442;SDS011;8331;51.654;14.376;2023-04-24T06:52:59;0.90;;;0.90;;
16442;SDS011;8331;51.654;14.376;2023-04-24T06:55:25;0.80;;;0.80;;
16442;SDS011;8331;51.654;14.376;2023-04-24T06:57:52;1.03;;;0.97;;
16442;SDS011;8331;51.654;14.376;2023-04-24T07:00:18;1.53;;;0.93;;
16442;SDS011;8331;51.654;14.376;2023-04-24T07:02:45;0.97;;;0.97;;
16442;SDS011;8331;51.654;14.376;2023-04-24T07:05:12;1.07;;;1.03;;
16442;SDS011;8331;51.654;14.376;2023-04-24T07:07:39;2.20;;;1.00;;
16442;SDS011;8331;51.654;14.376;2023-04-24T07:10:06;0.97;;;0.97;;
16442;SDS011;8331;51.654;14.376;2023-04-24T07:12:34;0.93;;;0.93;;
16442;SDS011;8331;51.654;14.376;2023-04-24T07:15:02;1.30;;;0.90;;
16442;SDS011;8331;51.654;14.376;2023-04-24T07:17:28;0.80;;;0.80;;
16442;SDS011;8331;51.654;14.376;2023-04-24T07:19:55;1.10;;;1.00;;
16442;SDS011;8331;51.654;14.376;2023-04-24T07:22:21;1.33;;;0.83;;
16442;SDS011;8331;51.654;14.376;2023-04-24T07:24:48;0.90;;;0.90;;
16442;SDS011;8331;51.654;14.376;2023-04-24T07:27:14;0.83;;;0.83;;
16442;SDS011;8331;51.654;14.376;2023-04-24T07:29:43;0.83;;;0.83;;
16442;SDS011;8331;51.654;14.376;2023-04-24T07:32:26;1.10;;;1.00;;
16442;SDS011;8331;51.654;14.376;2023-04-24T07:34:54;0.77;;;0.70;;
16442;SDS011;8331;51.654;14.376;2023-04-24T07:37:22;2.27;;;1.17;;
16442;SDS011;8331;51.654;14.376;2023-04-24T07:39:53;1.10;;;1.00;;
16442;SDS011;8331;51.654;14.376;2023-04-24T07:42:21;1.60;;;1.40;;
16442;SDS011;8331;51.654;14.376;2023-04-24T07:44:47;1.93;;;1.20;;
16442;SDS011;8331;51.654;14.376;2023-04-24T07:47:14;1.10;;;0.97;;
16442;SDS011;8331;51.654;14.376;2023-04-24T07:49:42;1.10;;;1.10;;
16442;SDS011;8331;51.654;14.376;2023-04-24T07:52:11;2.50;;;1.30;;
16442;SDS011;8331;51.654;14.376;2023-04-24T07:54:37;1.10;;;1.00;;
16442;SDS011;8331;51.654;14.376;2023-04-24T07:57:04;1.50;;;0.93;;
16442;SDS011;8331;51.654;14.376;2023-04-24T07:59:33;1.87;;;1.00;;
16442;SDS011;8331;51.654;14.376;2023-04-24T08:01:59;1.90;;;1.00;;
16442;SDS011;8331;51.654;14.376;2023-04-24T08:04:27;0.80;;;0.80;;
16442;SDS011;8331;51.654;14.376;2023-04-24T08:06:54;0.90;;;0.80;;
16442;SDS011;8331;51.654;14.376;2023-04-24T08:09:21;1.27;;;1.00;;
16442;SDS011;8331;51.654;14.376;2023-04-24T08:11:47;0.87;;;0.87;;
16442;SDS011;8331;51.654;14.376;2023-04-24T08:14:14;1.80;;;1.03;;
16442;SDS011;8331;51.654;14.376;2023-04-24T08:16:41;1.30;;;1.00;;
16442;SDS011;8331;51.654;14.376;2023-04-24T08:19:07;1.80;;;0.93;;
16442;SDS011;8331;51.654;14.376;2023-04-24T08:21:34;1.40;;;0.77;;
16442;SDS011;8331;51.654;14.376;2023-04-24T08:24:01;1.27;;;1.10;;
16442;SDS011;8331;51.654;14.376;2023-04-24T08:26:31;1.60;;;1.00;;
16442;SDS011;8331;51.654;14.376;2023-04-24T08:28:58;1.37;;;1.00;;
16442;SDS011;8331;51.654;14.376;2023-04-24T08:31:24;1.80;;;1.00;;
16442;SDS011;8331;51.654;14.376;2023-04-24T08:33:52;1.30;;;1.20;;
16442;SDS011;8331;51.654;14.376;2023-04-24T08:36:19;1.17;;;1.10;;
16442;SDS011;8331;51.654;14.376;2023-04-24T08:38:45;2.83;;;1.13;;
16442;SDS011;8331;51.654;14.376;2023-04-24T08:41:13;1.13;;;1.03;;
16442;SDS011;8331;51.654;14.376;2023-04-24T08:43:40;2.30;;;1.10;;
16442;SDS011;8331;51.654;14.376;2023-04-24T08:46:07;1.20;;;1.10;;
16442;SDS011;8331;51.654;14.376;2023-04-24T08:48:37;1.37;;;1.27;;
16442;SDS011;8331;51.654;14.376;2023-04-24T08:51:05;0.90;;;0.90;;
16442;SDS011;8331;51.654;14.376;2023-04-24T08:53:33;1.63;;;1.00;;
16442;SDS011;8331;51.654;14.376;2023-04-24T08:56:00;1.30;;;1.20;;
16442;SDS011;8331;51.654;14.376;2023-04-24T08:58:27;2.93;;;1.10;;
16442;SDS011;8331;51.654;14.376;2023-04-24T09:00:55;0.97;;;0.80;;
16442;SDS011;8331;51.654;14.376;2023-04-24T09:03:22;0.93;;;0.93;;
16442;SDS011;8331;51.654;14.376;2023-04-24T09:05:49;2.20;;;1.00;;
16442;SDS011;8331;51.654;14.376;2023-04-24T09:08:17;2.43;;;1.00;;
16442;SDS011;8331;51.654;14.376;2023-04-24T09:10:44;1.60;;;1.10;;
16442;SDS011;8331;51.654;14.376;2023-04-24T09:13:11;2.27;;;0.90;;
16442;SDS011;8331;51.654;14.376;2023-04-24T09:15:38;1.13;;;0.77;;
16442;SDS011;8331;51.654;14.376;2023-04-24T09:18:05;0.80;;;0.80;;
16442;SDS011;8331;51.654;14.376;2023-04-24T09:20:32;1.47;;;1.00;;
16442;SDS011;8331;51.654;14.376;2023-04-24T09:22:58;0.80;;;0.80;;
16442;SDS011;8331;51.654;14.376;2023-04-24T09:25:31;1.23;;;0.90;;
16442;SDS011;8331;51.654;14.376;2023-04-24T09:28:02;1.77;;;0.90;;
16442;SDS011;8331;51.654;14.376;2023-04-24T09:30:29;1.00;;;0.90;;
16442;SDS011;8331;51.654;14.376;2023-04-24T09:33:14;1.57;;;0.77;;
16442;SDS011;8331;51.654;14.376;2023-04-24T09:35:42;2.63;;;0.90;;
16442;SDS011;8331;51.654;14.376;2023-04-24T09:38:09;1.57;;;0.70;;
16442;SDS011;8331;51.654;14.376;2023-04-24T09:40:37;1.07;;;0.80;;
16442;SDS011;8331;51.654;14.376;2023-04-24T09:43:09;1.57;;;0.70;;
16442;SDS011;8331;51.654;14.376;2023-04-24T09:45:39;2.17;;;0.90;;
16442;SDS011;8331;51.654;14.376;2023-04-24T09:48:09;0.83;;;0.80;;
16442;SDS011;8331;51.654;14.376;2023-04-24T09:50:36;1.00;;;1.00;;
16442;SDS011;8331;51.654;14.376;2023-04-24T09:53:03;0.73;;;0.70;;
16442;SDS011;8331;51.654;14.376;2023-04-24T09:55:31;1.43;;;0.80;;
16442;SDS011;8331;51.654;14.376;2023-04-24T09:57:58;2.70;;;0.80;;
16442;SDS011;8331;51.654;14.376;2023-04-24T10:00:30;2.20;;;0.80;;
16442;SDS011;8331;51.654;14.376;2023-04-24T10:03:01;0.60;;;0.60;;
16442;SDS011;8331;51.654;14.376;2023-04-24T10:05:31;2.00;;;0.97;;
16442;SDS011;8331;51.654;14.376;2023-04-24T10:08:03;5.23;;;0.90;;
16442;SDS011;8331;51.654;14.376;2023-04-24T10:10:31;1.50;;;0.73;;
16442;SDS011;8331;51.654;14.376;2023-04-24T10:12:58;1.93;;;0.73;;
16442;SDS011;8331;51.654;14.376;2023-04-24T10:15:25;4.87;;;0.77;;
16442;SDS011;8331;51.654;14.376;2023-04-24T10:17:52;2.90;;;0.73;;
16442;SDS011;8331;51.654;14.376;2023-04-24T10:20:23;3.07;;;0.67;;
16442;SDS011;8331;51.654;14.376;2023-04-24T10:22:50;2.97;;;0.90;;
16442;SDS011;8331;51.654;14.376;2023-04-24T10:25:18;1.13;;;0.77;;
16442;SDS011;8331;51.654;14.376;2023-04-24T10:27:46;1.80;;;0.80;;
16442;SDS011;8331;51.654;14.376;2023-04-24T10:30:12;2.40;;;0.80;;
16442;SDS011;8331;51.654;14.376;2023-04-24T10:32:39;0.60;;;0.60;;
16442;SDS011;8331;51.654;14.376;2023-04-24T10:35:06;2.63;;;0.90;;
16442;SDS011;8331;51.654;14.376;2023-04-24T10:37:35;1.20;;;0.90;;
16442;SDS011;8331;51.654;14.376;2023-04-24T10:40:02;2.87;;;0.80;;
16442;SDS011;8331;51.654;14.376;2023-04-24T10:42:29;1.03;;;0.80;;
16442;SDS011;8331;51.654;14.376;2023-04-24T10:44:56;0.70;;;0.70;;
16442;SDS011;8331;51.654;14.376;2023-04-24T10:47:24;0.80;;;0.80;;
16442;SDS011;8331;51.654;14.376;2023-04-24T10:49:51;2.70;;;0.70;;
16442;SDS011;8331;51.654;14.376;2023-04-24T10:52:18;1.83;;;0.80;;
16442;SDS011;8331;51.654;14.376;2023-04-24T10:54:45;3.67;;;1.07;;
16442;SDS011;8331;51.654;14.376;2023-04-24T11:00:31;1.37;;;0.80;;
16442;SDS011;8331;51.654;14.376;2023-04-24T11:02:36;1.83;;;0.90;;
16442;SDS011;8331;51.654;14.376;2023-04-24T11:05:03;0.80;;;0.80;;
16442;SDS011;8331;51.654;14.376;2023-04-24T11:07:57;1.47;;;0.70;;
16442;SDS011;8331;51.654;14.376;2023-04-24T11:10:26;1.23;;;0.85;;
16442;SDS011;8331;51.654;14.376;2023-04-24T11:12:52;1.17;;;0.70;;
16442;SDS011;8331;51.654;14.376;2023-04-24T11:15:19;1.50;;;0.80;;
16442;SDS011;8331;51.654;14.376;2023-04-24T11:17:46;1.07;;;0.90;;
16442;SDS011;8331;51.654;14.376;2023-04-24T11:20:17;0.97;;;0.97;;
16442;SDS011;8331;51.654;14.376;2023-04-24T11:22:54;1.00;;;0.90;;
16442;SDS011;8331;51.654;14.376;2023-04-24T11:25:21;1.07;;;0.77;;
16442;SDS011;8331;51.654;14.376;2023-04-24T11:28:02;0.80;;;0.60;;
16442;SDS011;8331;51.654;14.376;2023-04-24T11:30:29;1.77;;;0.90;;
16442;SDS011;8331;51.654;14.376;2023-04-24T11:32:56;1.07;;;0.70;;
16442;SDS011;8331;51.654;14.376;2023-04-24T11:35:28;0.87;;;0.73;;
16442;SDS011;8331;51.654;14.376;2023-04-24T11:37:56;0.80;;;0.80;;
16442;SDS011;8331;51.654;14.376;2023-04-24T11:40:26;1.17;;;0.70;;
16442;SDS011;8331;51.654;14.376;2023-04-24T11:42:53;1.53;;;0.70;;
16442;SDS011;8331;51.654;14.376;2023-04-24T11:45:23;1.03;;;0.70;;
16442;SDS011;8331;51.654;14.376;2023-04-24T11:47:49;0.87;;;0.70;;
16442;SDS011;8331;51.654;14.376;2023-04-24T11:50:17;0.80;;;0.60;;
16442;SDS011;8331;51.654;14.376;2023-04-24T11:52:45;3.67;;;1.00;;
16442;SDS011;8331;51.654;14.376;2023-04-24T11:57:59;1.03;;;0.70;;
16442;SDS011;8331;51.654;14.376;2023-04-24T12:00:29;0.60;;;0.60;;
16442;SDS011;8331;51.654;14.376;2023-04-24T12:03:06;0.60;;;0.60;;
16442;SDS011;8331;51.654;14.376;2023-04-24T12:05:33;0.63;;;0.63;;
16442;SDS011;8331;51.654;14.376;2023-04-24T12:08:01;1.17;;;0.70;;
16442;SDS011;8331;51.654;14.376;2023-04-24T12:10:28;0.63;;;0.63;;
16442;SDS011;8331;51.654;14.376;2023-04-24T12:12:56;1.27;;;0.57;;
16442;SDS011;8331;51.654;14.376;2023-04-24T12:15:23;0.87;;;0.83;;
16442;SDS011;8331;51.654;14.376;2023-04-24T12:17:50;0.70;;;0.60;;
16442;SDS011;8331;51.654;14.376;2023-04-24T12:20:19;0.90;;;0.53;;
16442;SDS011;8331;51.654;14.376;2023-04-24T12:22:53;3.23;;;0.80;;
16442;SDS011;8331;51.654;14.376;2023-04-24T12:25:21;0.87;;;0.70;;
16442;SDS011;8331;51.654;14.376;2023-04-24T12:27:55;0.60;;;0.60;;
16442;SDS011;8331;51.654;14.376;2023-04-24T12:30:26;0.70;;;0.60;;
16442;SDS011;8331;51.654;14.376;2023-04-24T12:32:56;1.13;;;0.60;;
16442;SDS011;8331;51.654;14.376;2023-04-24T12:35:23;1.43;;;0.57;;
16442;SDS011;8331;51.654;14.376;2023-04-24T12:37:50;1.47;;;0.50;;
16442;SDS011;8331;51.654;14.376;2023-04-24T12:40:17;3.17;;;0.80;;
16442;SDS011;8331;51.654;14.376;2023-04-24T12:42:49;2.93;;;0.70;;
16442;SDS011;8331;51.654;14.376;2023-04-24T12:45:16;0.70;;;0.60;;
16442;SDS011;8331;51.654;14.376;2023-04-24T12:47:43;1.63;;;0.70;;
16442;SDS011;8331;51.654;14.376;2023-04-24T12:50:12;1.10;;;0.63;;
16442;SDS011;8331;51.654;14.376;2023-04-24T12:52:39;3.30;;;0.60;;
16442;SDS011;8331;51.654;14.376;2023-04-24T12:55:06;0.80;;;0.60;;
16442;SDS011;8331;51.654;14.376;2023-04-24T12:57:36;0.60;;;0.60;;
16442;SDS011;8331;51.654;14.376;2023-04-24T13:00:03;1.07;;;0.80;;
16442;SDS011;8331;51.654;14.376;2023-04-24T13:02:30;0.80;;;0.70;;
16442;SDS011;8331;51.654;14.376;2023-04-24T13:04:58;0.87;;;0.60;;
16442;SDS011;8331;51.654;14.376;2023-04-24T13:07:25;1.80;;;0.50;;
16442;SDS011;8331;51.654;14.376;2023-04-24T13:09:51;0.63;;;0.60;;
16442;SDS011;8331;51.654;14.376;2023-04-24T13:12:18;1.77;;;0.70;;
16442;SDS011;8331;51.654;14.376;2023-04-24T13:14:46;1.33;;;0.87;;
16442;SDS011;8331;51.654;14.376;2023-04-24T13:17:12;0.83;;;0.80;;
16442;SDS011;8331;51.654;14.376;2023-04-24T13:19:41;2.00;;;0.90;;
16442;SDS011;8331;51.654;14.376;2023-04-24T13:22:09;4.00;;;0.87;;
16442;SDS011;8331;51.654;14.376;2023-04-24T13:24:36;8.30;;;1.30;;
16442;SDS011;8331;51.654;14.376;2023-04-24T13:27:05;3.80;;;1.00;;
16442;SDS011;8331;51.654;14.376;2023-04-24T13:29:33;7.13;;;0.97;;
16442;SDS011;8331;51.654;14.376;2023-04-24T13:31:59;1.27;;;0.80;;
16442;SDS011;8331;51.654;14.376;2023-04-24T13:34:26;5.03;;;0.80;;
16442;SDS011;8331;51.654;14.376;2023-04-24T13:36:53;3.57;;;0.97;;
16442;SDS011;8331;51.654;14.376;2023-04-24T13:39:20;2.00;;;0.57;;
16442;SDS011;8331;51.654;14.376;2023-04-24T13:41:47;3.03;;;0.50;;
16442;SDS011;8331;51.654;14.376;2023-04-24T13:44:17;3.20;;;0.63;;
16442;SDS011;8331;51.654;14.376;2023-04-24T13:46:44;1.10;;;0.57;;
16442;SDS011;8331;51.654;14.376;2023-04-24T13:49:11;3.33;;;0.60;;
16442;SDS011;8331;51.654;14.376;2023-04-24T13:51:38;7.63;;;1.00;;
16442;SDS011;8331;51.654;14.376;2023-04-24T13:54:05;1.00;;;0.70;;
16442;SDS011;8331;51.654;14.376;2023-04-24T13:56:32;3.23;;;0.80;;
16442;SDS011;8331;51.654;14.376;2023-04-24T13:58:58;1.17;;;0.80;;
16442;SDS011;8331;51.654;14.376;2023-04-24T14:01:25;1.60;;;1.50;;
16442;SDS011;8331;51.654;14.376;2023-04-24T14:03:52;3.93;;;2.03;;
16442;SDS011;8331;51.654;14.376;2023-04-24T14:06:19;1.70;;;1.60;;
16442;SDS011;8331;51.654;14.376;2023-04-24T14:08:46;2.20;;;1.20;;
16442;SDS011;8331;51.654;14.376;2023-04-24T14:11:13;3.33;;;1.67;;
16442;SDS011;8331;51.654;14.376;2023-04-24T14:13:40;2.87;;;1.67;;
16442;SDS011;8331;51.654;14.376;2023-04-24T14:16:08;2.13;;;2.00;;
16442;SDS011;8331;51.654;14.376;2023-04-24T14:18:34;1.97;;;1.70;;
16442;SDS011;8331;51.654;14.376;2023-04-24T14:21:02;3.13;;;2.47;;
16442;SDS011;8331;51.654;14.376;2023-04-24T14:23:29;4.43;;;3.27;;
16442;SDS011;8331;51.654;14.376;2023-04-24T14:25:57;3.90;;;3.60;;
16442;SDS011;8331;51.654;14.376;2023-04-24T14:28:23;3.03;;;2.40;;
16442;SDS011;8331;51.654;14.376;2023-04-24T14:30:50;2.80;;;2.30;;
16442;SDS011;8331;51.654;14.376;2023-04-24T14:33:17;2.43;;;2.10;;
16442;SDS011;8331;51.654;14.376;2023-04-24T14:35:44;1.43;;;1.10;;
16442;SDS011;8331;51.654;14.376;2023-04-24T14:38:10;1.80;;;1.30;;
16442;SDS011;8331;51.654;14.376;2023-04-24T14:40:37;2.77;;;1.80;;
16442;SDS011;8331;51.654;14.376;2023-04-24T14:43:24;2.47;;;2.37;;
16442;SDS011;8331;51.654;14.376;2023-04-24T14:45:50;1.50;;;1.40;;
16442;SDS011;8331;51.654;14.376;2023-04-24T14:48:17;1.47;;;1.37;;
16442;SDS011;8331;51.654;14.376;2023-04-24T14:50:43;2.70;;;2.50;;
16442;SDS011;8331;51.654;14.376;2023-04-24T14:53:11;1.93;;;1.40;;
16442;SDS011;8331;51.654;14.376;2023-04-24T14:55:38;2.77;;;2.03;;
16442;SDS011;8331;51.654;14.376;2023-04-24T14:58:04;1.50;;;1.27;;
16442;SDS011;8331;51.654;14.376;2023-04-24T15:00:31;1.57;;;1.10;;